createdAt,value
2022-09-22T00:01:20.144Z,5.13
2022-09-22T00:03:49.419Z,4.90
2022-09-22T00:06:21.884Z,5.35
2022-09-22T00:08:51.836Z,5.90
2022-09-22T00:11:21.508Z,6.63
2022-09-22T00:13:54.058Z,5.18
2022-09-22T00:16:24.602Z,5.10
2022-09-22T00:18:51.480Z,4.43
2022-09-22T00:21:20.184Z,4.90
2022-09-22T00:23:47.291Z,3.85
2022-09-22T00:26:16.893Z,5.38
2022-09-22T00:28:45.263Z,4.80
2022-09-22T00:31:17.013Z,5.82
2022-09-22T00:33:46.247Z,4.60
2022-09-22T00:36:14.146Z,4.05
2022-09-22T00:38:41.586Z,3.97
2022-09-22T00:41:15.780Z,6.70
2022-09-22T00:43:46.991Z,5.07
2022-09-22T00:46:26.682Z,4.28
2022-09-22T00:49:00.951Z,6.18
2022-09-22T00:51:32.831Z,4.82
2022-09-22T00:54:01.563Z,5.07
2022-09-22T00:56:39.063Z,6.30
2022-09-22T00:59:10.275Z,4.80
2022-09-22T01:01:39.284Z,4.95
2022-09-22T01:04:07.403Z,5.68
2022-09-22T01:06:36.711Z,6.85
2022-09-22T01:09:03.747Z,6.28
2022-09-22T01:11:31.073Z,6.15
2022-09-22T01:14:08.764Z,4.78
2022-09-22T01:16:41.804Z,5.93
2022-09-22T01:19:26.095Z,4.72
2022-09-22T01:25:41.353Z,5.30
2022-09-22T01:28:32.271Z,9.13
2022-09-22T01:31:21.386Z,5.82
2022-09-22T01:34:07.871Z,7.60
2022-09-22T01:36:59.730Z,6.25
2022-09-22T01:39:34.204Z,8.48
2022-09-22T01:42:10.801Z,5.38
2022-09-22T01:44:53.653Z,6.40
2022-09-22T01:47:26.283Z,4.60
2022-09-22T01:49:57.916Z,5.72
2022-09-22T01:52:33.480Z,7.55
2022-09-22T01:55:03.445Z,6.13
2022-09-22T01:57:55.599Z,7.55
2022-09-22T02:00:26.487Z,8.40
2022-09-22T02:03:01.202Z,8.23
2022-09-22T02:05:36.912Z,7.65
2022-09-22T02:08:09.978Z,6.15
2022-09-22T02:10:41.356Z,6.97
2022-09-22T02:13:08.214Z,7.90
2022-09-22T02:15:56.274Z,8.13
2022-09-22T02:18:55.918Z,9.23
2022-09-22T02:21:25.387Z,7.25
2022-09-22T02:23:52.231Z,8.75
2022-09-22T02:26:30.369Z,6.68
2022-09-22T02:29:04.919Z,7.97
2022-09-22T02:31:36.087Z,6.18
2022-09-22T02:34:06.047Z,9.30
2022-09-22T02:36:33.766Z,6.82
2022-09-22T02:39:34.343Z,6.10
2022-09-22T02:42:26.776Z,9.32
2022-09-22T02:45:21.010Z,9.18
2022-09-22T02:48:09.034Z,9.02
2022-09-22T02:50:36.552Z,8.38
2022-09-22T02:53:10.796Z,7.32
2022-09-22T02:55:37.832Z,8.00
2022-09-22T02:58:04.555Z,7.25
2022-09-22T03:00:32.381Z,7.82
2022-09-22T03:02:59.711Z,9.00
2022-09-22T03:05:26.720Z,10.32
2022-09-22T03:07:53.456Z,9.25
2022-09-22T03:10:20.271Z,9.52
2022-09-22T03:13:14.469Z,7.40
2022-09-22T03:15:33.962Z,9.07
2022-09-22T03:18:00.745Z,13.20
2022-09-22T03:20:27.503Z,8.50
2022-09-22T03:22:54.776Z,7.97
2022-09-22T03:25:21.620Z,9.73
2022-09-22T03:27:48.347Z,9.73
2022-09-22T03:30:15.266Z,11.35
2022-09-22T03:32:42.003Z,8.57
2022-09-22T03:35:09.130Z,9.05
2022-09-22T03:37:36.281Z,8.93
2022-09-22T03:40:04.751Z,12.82
2022-09-22T03:42:32.896Z,10.43
2022-09-22T03:44:59.872Z,11.60
2022-09-22T03:47:26.641Z,11.10
2022-09-22T03:49:53.357Z,9.55
2022-09-22T03:52:20.468Z,9.05
2022-09-22T03:54:47.173Z,8.98
2022-09-22T03:57:14.103Z,8.57
2022-09-22T03:59:40.893Z,10.65
2022-09-22T04:02:07.655Z,9.85
2022-09-22T04:04:34.435Z,9.85
2022-09-22T04:07:06.746Z,9.10
2022-09-22T04:09:34.215Z,13.98
2022-09-22T04:12:01.115Z,10.73
2022-09-22T04:14:27.938Z,11.82
2022-09-22T04:16:54.709Z,11.88
2022-09-22T04:19:22.748Z,13.57
2022-09-22T04:21:54.650Z,13.00
2022-09-22T04:24:24.373Z,10.65
2022-09-22T04:27:15.198Z,12.80
2022-09-22T04:29:38.139Z,10.45
2022-09-22T04:32:05.389Z,11.55
2022-09-22T04:34:32.179Z,10.50
2022-09-22T04:36:58.903Z,12.00
2022-09-22T04:39:25.756Z,13.10
2022-09-22T04:41:52.481Z,11.65
2022-09-22T04:44:19.207Z,10.82
2022-09-22T04:46:46.257Z,11.30
2022-09-22T04:49:13.886Z,13.93
2022-09-22T04:51:40.761Z,12.38
2022-09-22T04:54:07.825Z,15.38
2022-09-22T04:56:34.574Z,11.93
2022-09-22T04:59:02.082Z,13.70
2022-09-22T05:01:28.948Z,13.82
2022-09-22T05:03:55.719Z,15.60
2022-09-22T05:06:22.413Z,13.93
2022-09-22T05:08:49.094Z,15.93
2022-09-22T05:11:15.955Z,15.32
2022-09-22T05:13:42.737Z,11.23
2022-09-22T05:16:09.523Z,14.82
2022-09-22T05:18:36.324Z,14.43
2022-09-22T05:21:03.126Z,14.70
2022-09-22T05:23:32.171Z,18.58
2022-09-22T05:25:58.938Z,15.77
2022-09-22T05:28:25.703Z,15.98
2022-09-22T05:30:52.607Z,16.30
2022-09-22T05:33:19.647Z,15.32
2022-09-22T05:35:46.515Z,17.70
2022-09-22T05:38:13.245Z,16.42
2022-09-22T05:40:40.000Z,15.25
2022-09-22T05:43:06.734Z,14.98
2022-09-22T05:45:33.562Z,12.35
2022-09-22T05:48:00.417Z,18.05
2022-09-22T05:50:27.193Z,17.00
2022-09-22T05:53:03.226Z,15.48
2022-09-22T05:55:29.964Z,17.45
2022-09-22T05:57:57.839Z,16.90
2022-09-22T06:00:24.610Z,16.52
2022-09-22T06:02:51.446Z,28.85
2022-09-22T06:05:19.568Z,26.20
2022-09-22T06:07:48.922Z,15.43
2022-09-22T06:10:15.896Z,11.25
2022-09-22T06:12:42.648Z,9.75
2022-09-22T06:15:09.917Z,5.70
2022-09-22T06:17:36.655Z,6.47
2022-09-22T06:20:03.940Z,6.00
2022-09-22T06:22:30.668Z,6.93
2022-09-22T06:24:57.418Z,6.07
2022-09-22T06:27:24.183Z,3.53
2022-09-22T06:29:50.968Z,4.22
2022-09-22T06:32:19.060Z,2.90
2022-09-22T06:34:46.130Z,5.40
2022-09-22T06:37:12.847Z,3.03
2022-09-22T06:39:39.566Z,2.75
2022-09-22T06:42:06.752Z,4.43
2022-09-22T06:44:33.734Z,4.22
2022-09-22T06:47:05.327Z,2.58
2022-09-22T06:49:32.254Z,4.43
2022-09-22T06:51:59.214Z,3.67
2022-09-22T06:54:25.958Z,3.75
2022-09-22T06:56:52.959Z,2.67
2022-09-22T06:59:19.943Z,2.88
2022-09-22T07:01:46.995Z,2.53
2022-09-22T07:04:14.804Z,2.72
2022-09-22T07:06:42.631Z,2.45
2022-09-22T07:09:09.482Z,3.35
2022-09-22T07:11:40.025Z,1.95
2022-09-22T07:14:08.525Z,2.70
2022-09-22T07:16:36.369Z,2.92
2022-09-22T07:19:04.791Z,2.88
2022-09-22T07:21:37.866Z,1.95
2022-09-22T07:24:05.552Z,2.42
2022-09-22T07:26:34.686Z,1.67
2022-09-22T07:29:04.113Z,1.63
2022-09-22T07:31:32.328Z,2.60
2022-09-22T07:34:02.294Z,2.28
2022-09-22T07:36:31.607Z,2.53
2022-09-22T07:39:04.165Z,2.67
2022-09-22T07:41:32.122Z,2.85
2022-09-22T07:44:18.915Z,4.53
2022-09-22T07:46:45.996Z,3.15
2022-09-22T07:49:15.106Z,3.22
2022-09-22T07:51:42.142Z,1.75
2022-09-22T07:54:08.976Z,2.78
2022-09-22T07:56:40.106Z,2.83
2022-09-22T07:59:10.736Z,1.90
2022-09-22T08:01:44.273Z,2.63
2022-09-22T08:04:18.816Z,3.70
2022-09-22T08:06:47.360Z,2.75
2022-09-22T08:09:14.591Z,2.25
2022-09-22T08:11:45.912Z,2.70
2022-09-22T08:14:12.824Z,2.00
2022-09-22T08:16:40.856Z,2.55
2022-09-22T08:19:12.919Z,2.92
2022-09-22T08:21:48.932Z,1.70
2022-09-22T08:24:22.342Z,1.48
2022-09-22T08:26:50.719Z,2.47
2022-09-22T08:29:17.519Z,2.35
2022-09-22T08:31:47.471Z,4.97
2022-09-22T08:34:16.338Z,1.77
2022-09-22T08:36:47.116Z,1.90
2022-09-22T08:39:15.028Z,4.15
2022-09-22T08:41:47.891Z,1.40
2022-09-22T08:44:22.971Z,1.83
2022-09-22T08:46:50.866Z,1.58
2022-09-22T08:49:54.558Z,1.92
2022-09-22T08:52:35.603Z,2.03
2022-09-22T08:55:03.370Z,1.65
2022-09-22T08:57:53.637Z,1.40
2022-09-22T09:00:20.937Z,2.05
2022-09-22T09:03:06.498Z,1.58
2022-09-22T09:05:48.392Z,2.35
2022-09-22T09:08:37.037Z,1.58
2022-09-22T09:11:30.728Z,1.83
2022-09-22T09:14:19.236Z,1.75
2022-09-22T09:16:50.367Z,1.67
2022-09-22T09:19:27.026Z,1.38
2022-09-22T09:21:57.796Z,1.48
2022-09-22T09:27:29.129Z,2.10
2022-09-22T09:30:17.852Z,1.98
2022-09-22T09:32:53.488Z,1.20
2022-09-22T09:35:41.270Z,1.50
2022-09-22T09:38:14.594Z,2.03
2022-09-22T09:40:41.707Z,1.98
2022-09-22T09:43:08.880Z,1.55
2022-09-22T09:46:03.086Z,3.53
2022-09-22T09:48:48.483Z,1.30
2022-09-22T09:51:15.367Z,2.88
2022-09-22T09:53:46.468Z,1.13
2022-09-22T09:56:36.152Z,1.40
2022-09-22T09:59:24.828Z,1.05
2022-09-22T10:01:54.155Z,2.08
2022-09-22T10:04:38.530Z,1.55
2022-09-22T10:07:14.082Z,1.85
2022-09-22T10:09:41.659Z,1.38
2022-09-22T10:12:26.562Z,1.20
2022-09-22T10:14:58.881Z,1.35
2022-09-22T10:17:40.555Z,2.08
2022-09-22T10:20:20.306Z,2.10
2022-09-22T10:22:48.041Z,1.70
2022-09-22T10:25:27.346Z,1.88
2022-09-22T10:28:05.129Z,2.63
2022-09-22T10:30:33.166Z,1.63
2022-09-22T10:33:14.352Z,1.70
2022-09-22T10:35:45.872Z,1.95
2022-09-22T10:38:17.803Z,1.30
2022-09-22T10:40:49.215Z,1.30
2022-09-22T10:43:48.457Z,1.40
2022-09-22T10:46:32.458Z,0.70
2022-09-22T10:49:23.847Z,1.83
2022-09-22T10:52:09.439Z,1.00
2022-09-22T10:54:42.782Z,1.35
2022-09-22T10:57:46.849Z,1.88
2022-09-22T11:00:21.565Z,1.33
2022-09-22T11:03:25.662Z,1.38
2022-09-22T11:06:52.064Z,1.15
2022-09-22T11:10:04.130Z,1.30
2022-09-22T11:13:06.287Z,1.77
2022-09-22T11:15:57.900Z,1.33
2022-09-22T11:18:34.469Z,0.68
2022-09-22T11:21:43.776Z,1.15
2022-09-22T11:24:19.935Z,1.10
2022-09-22T11:26:54.403Z,1.60
2022-09-22T11:29:45.315Z,2.22
2022-09-22T11:32:18.404Z,1.00
2022-09-22T11:35:03.144Z,2.33
2022-09-22T11:37:29.990Z,1.83
2022-09-22T11:39:59.425Z,0.82
2022-09-22T11:43:07.488Z,1.52
2022-09-22T11:45:56.708Z,1.85
2022-09-22T11:48:37.667Z,1.60
2022-09-22T11:51:10.115Z,1.30
2022-09-22T11:53:48.764Z,0.95
2022-09-22T11:56:19.350Z,2.65
2022-09-22T11:58:47.621Z,1.00
2022-09-22T12:01:19.307Z,1.65
2022-09-22T12:04:19.723Z,2.20
2022-09-22T12:06:50.358Z,1.27
2022-09-22T12:09:36.844Z,1.08
2022-09-22T12:12:06.154Z,0.90
2022-09-22T12:14:35.070Z,1.75
2022-09-22T12:17:05.919Z,1.30
2022-09-22T12:19:50.637Z,1.27
2022-09-22T12:22:47.972Z,1.20
2022-09-22T12:25:25.831Z,1.25
2022-09-22T12:27:58.637Z,0.90
2022-09-22T12:30:25.527Z,0.50
2022-09-22T12:32:52.355Z,3.33
2022-09-22T12:35:27.363Z,1.20
2022-09-22T12:38:02.053Z,0.55
2022-09-22T12:40:37.933Z,0.80
2022-09-22T12:43:06.022Z,0.50
2022-09-22T12:45:37.469Z,2.17
2022-09-22T12:48:18.140Z,1.17
2022-09-22T12:50:45.952Z,0.63
2022-09-22T12:53:21.928Z,1.95
2022-09-22T12:55:53.693Z,1.13
2022-09-22T12:58:20.415Z,0.88
2022-09-22T13:00:50.450Z,1.00
2022-09-22T13:03:26.223Z,2.50
2022-09-22T13:05:58.946Z,0.73
2022-09-22T13:08:31.482Z,2.15
2022-09-22T13:11:06.409Z,1.30
2022-09-22T13:13:36.668Z,0.60
2022-09-22T13:16:05.942Z,1.08
2022-09-22T13:18:40.200Z,3.35
2022-09-22T13:21:13.079Z,1.35
2022-09-22T13:23:51.955Z,1.10
2022-09-22T13:26:36.932Z,1.23
2022-09-22T13:29:19.790Z,2.67
2022-09-22T13:31:48.370Z,2.90
2022-09-22T13:34:27.298Z,0.68
2022-09-22T13:37:00.735Z,2.05
2022-09-22T13:39:32.291Z,0.60
2022-09-22T13:42:05.002Z,0.77
2022-09-22T13:44:34.639Z,0.85
2022-09-22T13:47:06.897Z,0.80
2022-09-22T13:49:41.018Z,0.68
2022-09-22T13:52:13.990Z,1.95
2022-09-22T13:54:41.367Z,0.95
2022-09-22T13:57:20.470Z,0.85
2022-09-22T13:59:47.280Z,1.75
2022-09-22T14:02:14.386Z,0.57
2022-09-22T14:04:53.055Z,1.10
2022-09-22T14:07:22.325Z,0.40
2022-09-22T14:09:50.030Z,0.98
2022-09-22T14:12:17.540Z,0.65
2022-09-22T14:14:44.602Z,1.02
2022-09-22T14:17:21.622Z,1.35
2022-09-22T14:20:02.875Z,0.40
2022-09-22T14:22:32.954Z,1.25
2022-09-22T14:25:01.670Z,1.20
2022-09-22T14:27:42.582Z,2.40
2022-09-22T14:30:19.641Z,2.25
2022-09-22T14:32:53.171Z,3.08
2022-09-22T14:35:30.130Z,0.77
2022-09-22T14:38:10.103Z,2.75
2022-09-22T14:40:55.001Z,0.60
2022-09-22T14:43:25.088Z,0.50
2022-09-22T14:46:00.618Z,0.60
2022-09-22T14:48:36.534Z,0.45
2022-09-22T14:51:16.705Z,0.95
2022-09-22T14:53:47.083Z,1.20
2022-09-22T14:56:23.632Z,0.75
2022-09-22T14:58:53.155Z,0.75
2022-09-22T15:01:41.787Z,0.75
2022-09-22T15:04:18.727Z,0.90
2022-09-22T15:06:46.760Z,1.67
2022-09-22T15:09:30.457Z,1.23
2022-09-22T15:12:02.915Z,1.00
2022-09-22T15:14:40.577Z,1.13
2022-09-22T15:17:53.102Z,0.43
2022-09-22T15:20:42.851Z,1.52
2022-09-22T15:23:41.799Z,1.27
2022-09-22T15:26:17.048Z,0.90
2022-09-22T15:28:47.748Z,2.13
2022-09-22T15:31:22.250Z,1.33
2022-09-22T15:33:49.383Z,1.60
2022-09-22T15:36:19.382Z,1.33
2022-09-22T15:38:46.471Z,2.05
2022-09-22T15:41:15.761Z,1.27
2022-09-22T15:43:43.442Z,0.50
2022-09-22T15:46:28.541Z,0.70
2022-09-22T15:49:02.926Z,0.73
2022-09-22T15:51:32.020Z,0.65
2022-09-22T15:53:58.921Z,0.85
2022-09-22T15:56:29.715Z,0.95
2022-09-22T15:59:00.852Z,0.65
2022-09-22T16:01:29.371Z,2.05
2022-09-22T16:04:00.203Z,0.52
2022-09-22T16:06:27.939Z,1.00
2022-09-22T16:08:55.373Z,0.70
2022-09-22T16:11:31.190Z,0.90
2022-09-22T16:14:01.154Z,0.40
2022-09-22T16:16:29.519Z,0.95
2022-09-22T16:18:57.229Z,0.90
2022-09-22T16:21:30.781Z,0.45
2022-09-22T16:24:02.882Z,0.90
2022-09-22T16:26:31.701Z,0.85
2022-09-22T16:28:59.267Z,1.20
2022-09-22T16:31:27.176Z,1.27
2022-09-22T16:34:00.379Z,2.05
2022-09-22T16:36:30.036Z,1.65
2022-09-22T16:38:57.508Z,2.20
2022-09-22T16:41:30.339Z,0.47
2022-09-22T16:43:58.508Z,1.30
2022-09-22T16:46:26.689Z,0.50
2022-09-22T16:49:00.198Z,1.60
2022-09-22T16:51:28.027Z,1.08
2022-09-22T16:53:55.719Z,5.07
2022-09-22T16:56:24.567Z,10.60
2022-09-22T16:58:52.274Z,7.18
2022-09-22T17:01:20.284Z,5.30
2022-09-22T17:03:49.563Z,4.85
2022-09-22T17:06:24.381Z,4.30
2022-09-22T17:08:57.065Z,6.35
2022-09-22T17:11:30.149Z,6.50
2022-09-22T17:14:03.085Z,6.85
2022-09-22T17:16:31.372Z,4.57
2022-09-22T17:19:02.290Z,5.05
2022-09-22T17:21:34.013Z,2.67
2022-09-22T17:24:02.639Z,2.45
2022-09-22T17:26:36.134Z,3.90
2022-09-22T17:29:04.286Z,3.30
2022-09-22T17:31:31.348Z,5.07
2022-09-22T17:33:58.641Z,5.72
2022-09-22T17:36:27.531Z,9.95
2022-09-22T17:38:56.842Z,17.40
2022-09-22T17:41:26.785Z,43.40
2022-09-22T17:43:57.620Z,62.15
2022-09-22T17:46:25.810Z,41.67
2022-09-22T17:49:11.412Z,24.98
2022-09-22T17:52:02.576Z,18.42
2022-09-22T17:54:52.891Z,11.73
2022-09-22T17:57:25.386Z,17.75
2022-09-22T17:59:52.619Z,12.48
2022-09-22T18:02:20.595Z,7.38
2022-09-22T18:04:47.992Z,12.65
2022-09-22T18:07:20.254Z,30.02
2022-09-22T18:09:48.806Z,27.55
2022-09-22T18:12:21.709Z,23.92
2022-09-22T18:14:50.254Z,22.75
2022-09-22T18:17:19.316Z,19.23
2022-09-22T18:19:46.458Z,12.45
2022-09-22T18:22:16.922Z,9.55
2022-09-22T18:24:51.159Z,6.47
2022-09-22T18:27:21.779Z,5.57
2022-09-22T18:29:53.182Z,6.30
2022-09-22T18:32:20.339Z,5.88
2022-09-22T18:34:48.009Z,4.35
2022-09-22T18:37:15.763Z,5.63
2022-09-22T18:39:45.556Z,4.93
2022-09-22T18:42:13.532Z,6.32
2022-09-22T18:44:44.136Z,9.60
2022-09-22T18:47:14.816Z,7.60
2022-09-22T18:49:42.971Z,7.07
2022-09-22T18:52:10.206Z,5.85
2022-09-22T18:54:43.868Z,8.52
2022-09-22T18:57:13.153Z,5.70
2022-09-22T18:59:40.726Z,5.20
2022-09-22T19:02:11.899Z,6.82
2022-09-22T19:04:39.172Z,6.97
2022-09-22T19:07:25.067Z,10.70
2022-09-22T19:09:52.934Z,14.20
2022-09-22T19:12:21.652Z,11.40
2022-09-22T19:14:56.154Z,23.85
2022-09-22T19:17:24.534Z,19.65
2022-09-22T19:19:51.404Z,24.60
2022-09-22T19:22:18.479Z,45.25
2022-09-22T19:24:46.315Z,66.57
2022-09-22T19:27:17.831Z,46.25
2022-09-22T19:29:44.668Z,27.42
2022-09-22T19:32:11.619Z,18.77
2022-09-22T19:34:38.763Z,16.65
2022-09-22T19:37:06.306Z,20.65
2022-09-22T19:39:33.236Z,19.17
2022-09-22T19:42:00.108Z,24.42
2022-09-22T19:44:29.655Z,21.25
2022-09-22T19:46:56.525Z,19.83
2022-09-22T19:49:25.513Z,27.67
2022-09-22T19:51:53.495Z,51.63
2022-09-22T19:54:20.936Z,48.65
2022-09-22T19:56:48.475Z,47.20
2022-09-22T19:59:19.617Z,24.83
2022-09-22T20:01:47.963Z,11.02
2022-09-22T20:04:18.570Z,11.63
2022-09-22T20:06:47.770Z,9.52
2022-09-22T20:09:15.718Z,6.43
2022-09-22T20:11:49.283Z,6.15
2022-09-22T20:14:23.567Z,4.60
2022-09-22T20:17:00.678Z,4.18
2022-09-22T20:19:29.025Z,4.13
2022-09-22T20:22:25.120Z,7.28
2022-09-22T20:24:54.807Z,5.20
2022-09-22T20:27:33.118Z,4.57
2022-09-22T20:30:01.057Z,7.88
2022-09-22T20:32:31.498Z,5.75
2022-09-22T20:34:58.354Z,7.32
2022-09-22T20:37:25.369Z,10.02
2022-09-22T20:39:52.397Z,11.57
2022-09-22T20:42:19.267Z,10.73
2022-09-22T20:44:47.161Z,10.43
2022-09-22T20:47:16.144Z,6.05
2022-09-22T20:49:45.050Z,5.28
2022-09-22T20:52:16.110Z,5.45
2022-09-22T20:54:44.160Z,4.20
2022-09-22T20:57:14.156Z,4.55
2022-09-22T20:59:43.928Z,5.28
2022-09-22T21:02:12.617Z,4.07
2022-09-22T21:04:39.820Z,5.03
2022-09-22T21:07:07.069Z,5.40
2022-09-22T21:09:52.595Z,4.07
2022-09-22T21:12:19.320Z,5.13
2022-09-22T21:14:46.269Z,4.93
2022-09-22T21:17:13.751Z,4.50
2022-09-22T21:19:40.854Z,5.07
2022-09-22T21:22:07.828Z,4.55
2022-09-22T21:24:34.689Z,3.88
2022-09-22T21:27:01.461Z,4.85
2022-09-22T21:29:29.474Z,5.30
2022-09-22T21:31:57.863Z,4.18
2022-09-22T21:34:25.068Z,7.40
2022-09-22T21:36:51.930Z,5.72
2022-09-22T21:39:18.873Z,4.60
2022-09-22T21:41:45.685Z,4.10
2022-09-22T21:44:12.539Z,5.57
2022-09-22T21:46:41.828Z,4.88
2022-09-22T21:49:10.074Z,7.40
2022-09-22T21:51:42.119Z,5.13
2022-09-22T21:54:21.878Z,5.47
2022-09-22T21:56:50.461Z,5.50
2022-09-22T21:59:17.544Z,5.75
2022-09-22T22:01:45.147Z,6.53
2022-09-22T22:04:15.152Z,4.57
2022-09-22T22:06:43.957Z,4.88
2022-09-22T22:09:15.847Z,4.97
2022-09-22T22:11:53.811Z,6.07
2022-09-22T22:14:21.678Z,5.38
2022-09-22T22:16:53.765Z,5.40
2022-09-22T22:19:22.626Z,4.45
2022-09-22T22:21:50.836Z,4.38
2022-09-22T22:24:23.489Z,4.72
2022-09-22T22:26:57.026Z,5.15
2022-09-22T22:29:26.322Z,4.00
2022-09-22T22:31:53.405Z,3.50
2022-09-22T22:34:22.911Z,5.28
2022-09-22T22:36:49.913Z,5.00
2022-09-22T22:39:16.884Z,4.18
2022-09-22T22:41:44.447Z,4.88
2022-09-22T22:44:14.475Z,4.72
2022-09-22T22:46:41.228Z,4.10
2022-09-22T22:49:08.081Z,8.02
2022-09-22T22:51:37.876Z,8.05
2022-09-22T22:54:04.995Z,5.05
2022-09-22T22:56:32.119Z,4.75
2022-09-22T22:58:59.230Z,6.82
2022-09-22T23:01:31.185Z,6.07
2022-09-22T23:04:03.957Z,4.93
2022-09-22T23:06:35.746Z,5.53
2022-09-22T23:09:04.246Z,4.20
2022-09-22T23:11:35.367Z,6.38
2022-09-22T23:14:03.822Z,5.13
2022-09-22T23:16:36.611Z,4.38
2022-09-22T23:19:07.678Z,5.35
2022-09-22T23:21:35.911Z,5.15
2022-09-22T23:24:03.834Z,4.30
2022-09-22T23:26:31.993Z,5.82
2022-09-22T23:28:59.343Z,6.85
2022-09-22T23:31:26.168Z,4.90
2022-09-22T23:33:53.540Z,8.25
2022-09-22T23:36:22.850Z,6.90
2022-09-22T23:38:57.047Z,8.60
2022-09-22T23:41:24.359Z,5.72
2022-09-22T23:43:51.273Z,6.95
2022-09-22T23:46:18.441Z,5.50
2022-09-22T23:48:47.473Z,5.85
2022-09-22T23:51:15.053Z,6.38
2022-09-22T23:53:42.131Z,5.57
2022-09-22T23:56:09.281Z,6.72
2022-09-22T23:58:36.341Z,6.53
